Time;durP1;ratioP1;P1;durP2;ratioP2;P2;SDS_P1;SDS_P2;PMS_P1;PMS_P2;Temp;Humidity;BMP_temperature;BMP_pressure;BME280_temperature;BME280_humidity;BME280_pressure;Samples;Min_cycle;Max_cycle;Signal;HPM_P1;HPM_P2
2023/07/14 00:00:16;;;;;;;7.80;4.30;;;14.80;1.00;;;;;;5036376;28;20414;-76
2023/07/14 00:02:43;;;;;;;7.87;4.60;;;14.80;1.00;;;;;;5035194;28;20441;-66
2023/07/14 00:05:14;;;;;;;6.70;4.90;;;14.80;1.00;;;;;;5035847;28;21227;-76
2023/07/14 00:07:40;;;;;;;7.00;4.70;;;14.80;1.00;;;;;;5035780;28;20437;-71
2023/07/14 00:10:20;;;;;;;11.90;4.43;;;14.80;1.00;;;;;;5036249;28;20453;-75
2023/07/14 00:12:46;;;;;;;5.70;4.90;;;14.80;1.00;;;;;;5030024;28;20222;-68
2023/07/14 00:15:14;;;;;;;6.83;4.77;;;14.80;1.00;;;;;;5015913;28;20450;-73
2023/07/14 00:17:40;;;;;;;5.27;4.00;;;14.80;1.00;;;;;;5030130;28;20910;-75
2023/07/14 00:20:26;;;;;;;6.57;4.57;;;14.70;1.00;;;;;;5034612;28;20449;-73
2023/07/14 00:22:53;;;;;;;8.63;5.27;;;14.80;1.00;;;;;;5016790;28;20429;-66
2023/07/14 00:25:22;;;;;;;12.70;5.00;;;14.80;1.00;;;;;;5014918;28;20456;-68
2023/07/14 00:27:52;;;;;;;11.33;5.00;;;14.80;1.00;;;;;;5017659;28;20843;-74
2023/07/14 00:30:25;;;;;;;11.13;4.63;;;14.80;1.00;;;;;;5025035;28;20494;-67
2023/07/14 00:32:52;;;;;;;7.33;4.67;;;14.80;1.00;;;;;;5035516;28;20430;-67
2023/07/14 00:35:22;;;;;;;5.37;4.40;;;14.80;1.00;;;;;;5034505;28;20437;-77
2023/07/14 00:37:49;;;;;;;9.30;4.50;;;14.70;1.00;;;;;;5035712;28;20433;-67
2023/07/14 00:40:18;;;;;;;4.37;3.97;;;14.70;1.00;;;;;;5035859;28;20460;-66
2023/07/14 00:42:46;;;;;;;6.33;4.20;;;14.70;1.00;;;;;;5017642;28;20482;-67
2023/07/14 00:45:16;;;;;;;6.40;5.00;;;14.70;1.00;;;;;;5015314;28;20400;-72
2023/07/14 00:47:42;;;;;;;5.70;4.50;;;14.60;1.00;;;;;;5015908;28;20516;-66
2023/07/14 00:50:24;;;;;;;6.10;4.60;;;14.60;1.00;;;;;;5015939;28;20883;-76
2023/07/14 00:52:51;;;;;;;6.50;4.83;;;14.50;1.00;;;;;;5032328;28;20434;-66
2023/07/14 00:55:27;;;;;;;7.17;5.17;;;14.50;1.00;;;;;;5030796;28;20423;-72
2023/07/14 00:57:55;;;;;;;5.73;4.57;;;14.60;1.00;;;;;;5021711;28;20858;-75
2023/07/14 01:00:30;;;;;;;7.33;4.90;;;14.60;1.00;;;;;;5033855;28;21008;-68
2023/07/14 01:03:01;;;;;;;4.43;3.97;;;14.60;1.00;;;;;;5026894;28;20444;-66
2023/07/14 01:05:28;;;;;;;6.70;3.87;;;14.60;1.00;;;;;;5033663;28;20497;-66
2023/07/14 01:07:55;;;;;;;5.17;4.37;;;14.60;1.00;;;;;;5035521;28;20453;-76
2023/07/14 01:10:25;;;;;;;7.40;4.30;;;14.50;1.00;;;;;;5028477;28;20433;-66
2023/07/14 01:13:00;;;;;;;5.67;4.80;;;14.50;1.00;;;;;;5034175;28;20424;-66
2023/07/14 01:15:26;;;;;;;6.90;5.80;;;14.50;1.00;;;;;;5022875;28;20506;-71
2023/07/14 01:17:53;;;;;;;6.90;5.23;;;14.50;1.00;;;;;;5022881;28;20424;-66
2023/07/14 01:20:20;;;;;;;8.73;4.40;;;14.50;1.00;;;;;;5035011;28;20437;-71
2023/07/14 01:23:00;;;;;;;5.17;4.67;;;14.40;1.00;;;;;;5033935;28;20425;-76
2023/07/14 01:26:04;;;;;;;10.77;4.67;;;14.40;1.00;;;;;;5028659;28;20437;-76
2023/07/14 01:28:30;;;;;;;5.40;4.90;;;14.40;1.00;;;;;;5011647;28;20431;-66
2023/07/14 01:30:56;;;;;;;5.73;4.37;;;14.40;1.00;;;;;;5033655;28;20469;-76
2023/07/14 01:33:22;;;;;;;8.37;4.97;;;14.40;1.00;;;;;;5024345;28;20769;-67
2023/07/14 01:35:58;;;;;;;5.07;4.67;;;14.40;1.00;;;;;;5015419;28;20215;-73
2023/07/14 01:38:25;;;;;;;6.53;4.73;;;14.40;1.00;;;;;;5015025;28;20172;-67
2023/07/14 01:40:51;;;;;;;5.37;4.70;;;14.40;1.00;;;;;;5017565;28;20504;-76
2023/07/14 01:43:17;;;;;;;10.00;5.33;;;14.40;1.00;;;;;;5015800;28;20402;-71
2023/07/14 01:46:01;;;;;;;6.90;4.97;;;14.30;1.00;;;;;;5014117;28;20435;-77
2023/07/14 01:48:34;;;;;;;8.33;5.83;;;14.30;1.00;;;;;;5014664;28;20288;-76
2023/07/14 01:51:06;;;;;;;8.43;5.07;;;14.30;1.00;;;;;;5022409;28;20489;-75
2023/07/14 01:53:40;;;;;;;7.30;5.33;;;14.20;1.00;;;;;;5034479;28;20402;-67
2023/07/14 01:56:09;;;;;;;6.03;4.93;;;14.30;1.00;;;;;;5032384;28;20505;-72
2023/07/14 01:58:42;;;;;;;9.47;6.53;;;14.30;1.00;;;;;;5033053;28;20475;-67
2023/07/14 02:01:10;;;;;;;8.93;5.70;;;14.20;1.00;;;;;;5023549;28;20797;-72
2023/07/14 02:03:47;;;;;;;7.90;5.70;;;14.20;1.00;;;;;;5023495;28;20442;-72
2023/07/14 02:06:13;;;;;;;9.30;5.40;;;14.10;1.00;;;;;;5033466;28;20402;-76
2023/07/14 02:08:39;;;;;;;9.77;6.10;;;14.10;1.00;;;;;;5034769;28;20744;-66
2023/07/14 02:11:05;;;;;;;7.27;5.80;;;14.10;1.00;;;;;;5032923;28;20208;-70
2023/07/14 02:13:32;;;;;;;8.40;5.77;;;14.10;1.00;;;;;;5018066;28;20276;-76
2023/07/14 02:15:58;;;;;;;7.07;6.43;;;14.10;1.00;;;;;;5016531;28;20176;-66
2023/07/14 02:18:27;;;;;;;6.00;5.00;;;14.10;1.00;;;;;;5033071;28;20770;-70
2023/07/14 02:20:54;;;;;;;11.00;6.27;;;14.10;1.00;;;;;;5034397;28;20183;-67
2023/07/14 02:23:22;;;;;;;9.40;8.60;;;14.10;1.00;;;;;;5034324;28;20394;-76
2023/07/14 02:25:58;;;;;;;10.17;5.90;;;14.10;1.00;;;;;;5033162;28;20409;-76
2023/07/14 02:28:24;;;;;;;7.87;6.00;;;14.10;1.00;;;;;;5031745;28;20488;-67
2023/07/14 02:30:58;;;;;;;15.93;6.20;;;14.10;1.00;;;;;;5032806;28;21201;-66
2023/07/14 02:33:34;;;;;;;22.70;7.00;;;14.10;1.00;;;;;;5032659;28;20426;-74
2023/07/14 02:36:25;;;;;;;8.13;6.73;;;14.10;1.00;;;;;;5033029;28;20402;-75
2023/07/14 02:38:55;;;;;;;13.50;7.37;;;14.10;1.00;;;;;;5033291;28;20426;-66
2023/07/14 02:41:25;;;;;;;12.60;5.93;;;14.10;1.00;;;;;;5031151;28;20425;-66
2023/07/14 02:43:55;;;;;;;10.20;6.43;;;14.10;1.00;;;;;;5017355;28;20944;-76
2023/07/14 02:46:28;;;;;;;12.43;6.93;;;14.10;1.00;;;;;;5030953;28;20438;-66
2023/07/14 02:48:54;;;;;;;8.10;6.90;;;14.10;1.00;;;;;;5032360;28;20593;-66
2023/07/14 02:51:20;;;;;;;11.80;7.60;;;14.10;1.00;;;;;;5032994;28;20811;-75
2023/07/14 02:53:46;;;;;;;8.17;7.23;;;14.10;1.00;;;;;;5033836;28;20513;-73
2023/07/14 02:56:12;;;;;;;13.93;8.40;;;14.10;1.00;;;;;;5023529;28;20423;-71
2023/07/14 02:58:38;;;;;;;12.07;6.90;;;14.10;1.00;;;;;;5014046;28;20656;-66
2023/07/14 03:01:05;;;;;;;9.70;8.23;;;14.00;1.00;;;;;;5014618;28;20180;-76
2023/07/14 03:03:33;;;;;;;11.87;7.97;;;14.00;1.00;;;;;;5021155;28;20179;-74
2023/07/14 03:05:59;;;;;;;6.93;6.27;;;14.00;8.10;;;;;;5032151;28;20505;-70
2023/07/14 03:08:26;;;;;;;11.73;8.27;;;14.00;14.60;;;;;;5033827;28;20413;-68
2023/07/14 03:10:56;;;;;;;10.43;7.53;;;14.00;22.30;;;;;;5024231;28;20433;-66
2023/07/14 03:13:22;;;;;;;9.33;8.33;;;14.00;27.90;;;;;;5028277;28;20487;-75
2023/07/14 03:15:47;;;;;;;12.73;8.17;;;14.00;33.70;;;;;;5032930;28;20498;-69
2023/07/14 03:18:14;;;;;;;20.07;8.10;;;14.10;35.60;;;;;;5031749;28;20235;-66
2023/07/14 03:20:41;;;;;;;17.80;8.67;;;14.00;38.70;;;;;;5033641;28;20198;-76
2023/07/14 03:23:07;;;;;;;15.63;8.33;;;14.00;43.70;;;;;;5036163;28;20420;-66
2023/07/14 03:25:33;;;;;;;10.60;8.27;;;14.00;50.70;;;;;;5033541;28;20786;-67
2023/07/14 03:28:01;;;;;;;12.83;8.00;;;14.10;51.50;;;;;;5016676;28;20935;-66
2023/07/14 03:30:31;;;;;;;11.33;8.33;;;14.00;52.00;;;;;;5016916;28;21004;-75
2023/07/14 03:32:57;;;;;;;14.07;8.40;;;14.10;58.70;;;;;;5027747;28;20469;-76
2023/07/14 03:35:23;;;;;;;8.47;7.07;;;14.10;62.80;;;;;;5036793;28;20399;-66
2023/07/14 03:37:48;;;;;;;9.07;8.23;;;14.10;66.60;;;;;;5036189;28;20238;-76
2023/07/14 03:40:14;;;;;;;11.63;8.33;;;14.20;65.90;;;;;;5029690;28;20192;-75
2023/07/14 03:42:43;;;;;;;10.73;8.13;;;14.20;67.90;;;;;;5036777;28;20179;-76
2023/07/14 03:45:09;;;;;;;11.07;8.40;;;14.20;63.70;;;;;;5032496;28;20454;-70
2023/07/14 03:47:36;;;;;;;10.17;7.47;;;14.20;64.20;;;;;;5022376;28;20543;-75
2023/07/14 03:50:02;;;;;;;12.70;9.23;;;14.20;65.70;;;;;;5034979;28;20465;-66
2023/07/14 03:52:28;;;;;;;9.63;7.33;;;14.20;66.80;;;;;;5034905;28;20913;-76
2023/07/14 03:54:54;;;;;;;12.23;8.10;;;14.30;67.70;;;;;;5037203;28;20406;-70
2023/07/14 03:57:19;;;;;;;13.30;7.80;;;14.20;64.00;;;;;;5036291;28;20188;-73
2023/07/14 03:59:45;;;;;;;10.47;7.80;;;14.20;60.80;;;;;;5035650;28;20624;-68
2023/07/14 04:02:11;;;;;;;16.53;8.07;;;14.20;62.50;;;;;;5035565;28;20214;-76
2023/07/14 04:04:36;;;;;;;10.10;9.00;;;14.20;64.40;;;;;;5036960;28;20210;-75
2023/07/14 04:07:02;;;;;;;8.43;7.53;;;14.20;67.00;;;;;;5023609;28;20226;-76
2023/07/14 04:09:28;;;;;;;12.80;7.60;;;14.30;70.00;;;;;;5033115;28;20203;-76
2023/07/14 04:11:54;;;;;;;10.47;7.57;;;14.30;71.70;;;;;;5018047;28;20176;-73
2023/07/14 04:14:19;;;;;;;10.50;7.43;;;14.30;70.00;;;;;;5016969;28;20582;-77
2023/07/14 04:16:45;;;;;;;9.47;7.77;;;14.40;73.80;;;;;;5015810;28;20188;-76
2023/07/14 04:19:11;;;;;;;9.67;7.47;;;14.40;73.90;;;;;;5022414;28;20275;-77
2023/07/14 04:21:36;;;;;;;10.93;7.30;;;14.40;76.00;;;;;;5016902;28;20643;-66
2023/07/14 04:24:02;;;;;;;10.07;6.93;;;14.40;77.20;;;;;;5020983;28;20181;-67
2023/07/14 04:26:29;;;;;;;12.23;7.53;;;14.40;75.20;;;;;;5022393;28;20563;-67
2023/07/14 04:28:55;;;;;;;18.47;7.43;;;14.40;74.80;;;;;;5016197;28;20403;-74
2023/07/14 04:31:21;;;;;;;18.47;9.53;;;14.40;80.80;;;;;;5016506;28;20442;-69
2023/07/14 04:33:49;;;;;;;10.67;7.00;;;14.40;84.40;;;;;;5032464;28;20446;-71
2023/07/14 04:36:15;;;;;;;8.73;7.50;;;14.50;85.40;;;;;;5033485;28;20276;-66
2023/07/14 04:39:01;;;;;;;6.93;6.23;;;14.50;89.90;;;;;;5026864;28;20467;-67
2023/07/14 04:41:26;;;;;;;10.00;6.77;;;14.50;91.10;;;;;;5023216;28;20513;-76
2023/07/14 04:43:52;;;;;;;9.07;7.20;;;14.50;89.90;;;;;;5036064;28;20847;-76
2023/07/14 04:46:18;;;;;;;13.43;6.80;;;14.60;93.70;;;;;;5034563;28;20211;-66
2023/07/14 04:48:44;;;;;;;10.93;6.80;;;14.60;93.70;;;;;;5033571;28;20207;-67
2023/07/14 04:51:10;;;;;;;7.77;6.40;;;14.70;93.80;;;;;;5036074;28;20191;-70
2023/07/14 04:53:36;;;;;;;7.03;6.40;;;14.60;92.20;;;;;;5035536;28;20433;-67
2023/07/14 04:56:01;;;;;;;12.83;7.40;;;14.60;91.70;;;;;;5017832;28;20434;-69
2023/07/14 04:58:27;;;;;;;12.07;7.27;;;14.60;93.70;;;;;;5015948;28;20175;-66
2023/07/14 05:00:53;;;;;;;9.77;7.90;;;14.70;93.80;;;;;;5015927;28;20392;-66
2023/07/14 05:03:18;;;;;;;11.27;6.57;;;14.80;93.80;;;;;;5024853;28;20179;-75
2023/07/14 05:05:45;;;;;;;9.27;7.40;;;14.80;93.80;;;;;;5034007;28;20172;-68
2023/07/14 05:08:11;;;;;;;7.87;6.77;;;14.90;93.80;;;;;;5035716;28;20199;-66
2023/07/14 05:10:38;;;;;;;12.97;6.87;;;14.90;93.80;;;;;;5034461;28;20457;-67
2023/07/14 05:13:05;;;;;;;9.17;7.90;;;14.90;93.80;;;;;;5034804;28;20213;-66
2023/07/14 05:15:30;;;;;;;7.23;6.57;;;15.00;94.80;;;;;;5033153;28;20444;-66
2023/07/14 05:17:56;;;;;;;15.30;8.10;;;15.00;95.90;;;;;;5033344;28;20529;-66
2023/07/14 05:20:22;;;;;;;10.90;7.80;;;15.20;97.60;;;;;;5035027;28;20406;-68
2023/07/14 05:22:51;;;;;;;11.17;7.07;;;15.20;93.90;;;;;;5033225;28;20696;-73
2023/07/14 05:25:17;;;;;;;9.03;7.37;;;15.20;93.90;;;;;;5031666;28;20426;-71
2023/07/14 05:27:44;;;;;;;9.07;7.13;;;15.30;94.00;;;;;;5035217;28;20957;-76
2023/07/14 05:30:14;;;;;;;11.40;8.53;;;15.30;94.00;;;;;;5034423;28;20912;-77
2023/07/14 05:32:41;;;;;;;9.60;6.93;;;15.40;94.00;;;;;;5020061;28;20448;-76
2023/07/14 05:35:07;;;;;;;11.57;8.13;;;15.50;94.00;;;;;;5025256;28;20924;-66
2023/07/14 05:37:33;;;;;;;14.27;8.00;;;15.60;94.10;;;;;;5015322;28;20418;-75
2023/07/14 05:39:59;;;;;;;12.97;7.93;;;15.70;94.20;;;;;;5031554;28;20457;-71
2023/07/14 05:42:24;;;;;;;8.90;8.00;;;15.70;94.10;;;;;;5034397;28;20403;-65
2023/07/14 05:44:50;;;;;;;11.23;8.17;;;15.80;94.20;;;;;;5034379;28;20356;-71
2023/07/14 05:47:16;;;;;;;13.23;7.80;;;15.90;94.20;;;;;;5015308;28;20665;-65
2023/07/14 05:49:41;;;;;;;10.13;7.27;;;15.90;85.90;;;;;;5032526;28;20203;-62
2023/07/14 05:52:10;;;;;;;10.83;7.10;;;16.00;83.00;;;;;;5034803;28;20626;-65
2023/07/14 05:54:36;;;;;;;10.50;6.70;;;16.00;69.30;;;;;;5024982;28;20679;-70
2023/07/14 05:57:02;;;;;;;12.17;7.60;;;16.00;63.40;;;;;;5022185;28;20425;-67
2023/07/14 05:59:28;;;;;;;15.67;7.90;;;16.10;58.50;;;;;;5032736;28;20422;-70
2023/07/14 06:01:53;;;;;;;10.67;7.97;;;16.20;49.40;;;;;;5034305;28;20182;-64
2023/07/14 06:04:19;;;;;;;10.30;8.10;;;16.20;42.10;;;;;;5033381;28;20180;-71
2023/07/14 06:06:45;;;;;;;12.07;8.37;;;16.30;31.90;;;;;;5033869;28;20192;-71
2023/07/14 06:09:13;;;;;;;9.43;7.40;;;16.30;11.80;;;;;;5019159;28;20446;-63
2023/07/14 06:11:40;;;;;;;9.63;7.23;;;16.30;4.70;;;;;;5013895;28;20242;-72
2023/07/14 06:14:05;;;;;;;7.33;6.63;;;16.40;3.50;;;;;;5018383;28;20437;-63
2023/07/14 06:16:31;;;;;;;9.30;7.27;;;16.50;1.00;;;;;;5029363;28;20442;-64
2023/07/14 06:18:57;;;;;;;8.17;7.33;;;16.50;1.00;;;;;;5020123;28;20254;-71
2023/07/14 06:21:23;;;;;;;8.17;6.57;;;16.60;1.00;;;;;;5034030;28;20167;-65
2023/07/14 06:23:49;;;;;;;6.33;5.70;;;16.70;1.00;;;;;;5034193;28;20164;-72
2023/07/14 06:26:15;;;;;;;10.40;7.10;;;16.80;1.00;;;;;;5030190;28;20491;-63
2023/07/14 06:28:42;;;;;;;6.70;6.00;;;16.80;1.00;;;;;;5033304;28;20254;-70
2023/07/14 06:31:12;;;;;;;7.63;5.63;;;16.90;1.00;;;;;;5031894;28;20564;-71
2023/07/14 06:33:38;;;;;;;11.53;6.43;;;16.90;1.00;;;;;;5027047;28;20423;-63
2023/07/14 06:36:04;;;;;;;8.50;5.33;;;17.00;1.00;;;;;;5013474;28;20408;-69
2023/07/14 06:38:30;;;;;;;12.80;6.23;;;16.90;1.00;;;;;;5014351;28;20435;-66
2023/07/14 06:41:07;;;;;;;6.83;4.70;;;17.00;1.00;;;;;;5014211;28;20641;-76
2023/07/14 06:43:33;;;;;;;8.73;5.47;;;17.20;1.00;;;;;;5014040;28;20859;-75
2023/07/14 06:45:59;;;;;;;5.87;4.47;;;17.20;1.00;;;;;;5011605;28;20973;-70
2023/07/14 06:48:26;;;;;;;5.77;4.83;;;17.30;1.00;;;;;;5023546;28;20449;-74
2023/07/14 06:50:52;;;;;;;8.00;4.70;;;17.40;1.00;;;;;;5032750;28;20450;-67
2023/07/14 06:53:19;;;;;;;4.30;3.90;;;17.40;1.00;;;;;;5032890;28;20420;-67
2023/07/14 06:55:45;;;;;;;5.17;4.13;;;17.50;1.00;;;;;;5027375;28;20810;-66
2023/07/14 06:58:11;;;;;;;6.27;4.80;;;17.60;1.00;;;;;;5026899;28;20441;-67
2023/07/14 07:00:38;;;;;;;9.43;4.77;;;17.60;1.00;;;;;;5033589;28;20802;-66
2023/07/14 07:03:05;;;;;;;5.60;4.67;;;17.70;1.00;;;;;;5030070;28;21009;-70
2023/07/14 07:05:39;;;;;;;5.47;4.40;;;17.80;1.00;;;;;;5012556;28;20474;-76
2023/07/14 07:08:12;;;;;;;7.30;4.13;;;17.90;1.00;;;;;;5013875;28;20426;-67
2023/07/14 07:10:40;;;;;;;5.63;5.10;;;18.10;1.00;;;;;;5016470;28;20457;-67
2023/07/14 07:13:06;;;;;;;5.00;4.47;;;18.20;1.00;;;;;;5013828;28;20434;-74
2023/07/14 07:15:32;;;;;;;6.30;5.60;;;18.30;1.00;;;;;;5012753;28;20904;-66
2023/07/14 07:17:57;;;;;;;6.70;5.00;;;18.40;1.00;;;;;;5015185;28;20200;-67
2023/07/14 07:20:23;;;;;;;10.13;4.97;;;18.50;1.00;;;;;;5014055;28;20231;-67
2023/07/14 07:22:49;;;;;;;6.30;4.60;;;18.60;1.00;;;;;;5013246;28;20307;-76
2023/07/14 07:25:16;;;;;;;10.20;4.40;;;18.70;1.00;;;;;;5020929;28;20263;-66
2023/07/14 07:27:42;;;;;;;5.50;4.00;;;18.80;1.00;;;;;;5019392;28;20199;-75
2023/07/14 07:30:09;;;;;;;7.10;4.70;;;18.90;1.00;;;;;;5033168;28;20969;-76
2023/07/14 07:32:35;;;;;;;5.40;4.53;;;18.90;1.00;;;;;;5032281;28;20906;-67
2023/07/14 07:35:01;;;;;;;7.90;5.13;;;18.90;1.00;;;;;;5029919;28;20607;-72
2023/07/14 07:37:28;;;;;;;5.07;4.47;;;19.00;1.00;;;;;;5033168;28;20976;-66
2023/07/14 07:39:58;;;;;;;7.53;4.67;;;19.10;1.00;;;;;;5032348;28;20452;-75
2023/07/14 07:42:23;;;;;;;10.13;4.90;;;19.00;1.00;;;;;;5031937;28;20990;-75
2023/07/14 07:44:49;;;;;;;5.47;4.83;;;19.00;1.00;;;;;;5031176;28;20497;-71
2023/07/14 07:47:15;;;;;;;6.90;4.70;;;19.00;1.00;;;;;;5031585;28;20188;-76
2023/07/14 07:49:41;;;;;;;10.47;4.90;;;19.10;1.00;;;;;;5032074;28;20257;-72
2023/07/14 07:52:11;;;;;;;6.10;4.27;;;19.20;1.00;;;;;;5032730;28;20434;-66
2023/07/14 07:54:38;;;;;;;7.70;4.60;;;19.30;1.00;;;;;;5032108;28;20429;-66
2023/07/14 07:57:06;;;;;;;6.67;4.33;;;19.40;1.00;;;;;;5031219;28;20433;-67
2023/07/14 07:59:32;;;;;;;9.80;5.17;;;19.50;1.00;;;;;;5031416;28;20415;-74
2023/07/14 08:01:58;;;;;;;8.73;4.73;;;19.40;1.00;;;;;;5021415;28;20848;-75
2023/07/14 08:04:23;;;;;;;8.10;4.53;;;19.50;1.00;;;;;;5032334;28;20183;-76
2023/07/14 08:06:49;;;;;;;4.67;4.23;;;19.60;1.00;;;;;;5032036;28;20262;-69
2023/07/14 08:09:15;;;;;;;3.17;2.97;;;19.70;1.00;;;;;;5014865;28;20169;-67
2023/07/14 08:11:41;;;;;;;5.43;4.17;;;19.80;1.00;;;;;;5017146;28;20161;-67
2023/07/14 08:14:16;;;;;;;4.77;3.53;;;19.90;1.00;;;;;;5016879;28;20157;-77
2023/07/14 08:16:42;;;;;;;8.73;3.50;;;19.90;1.00;;;;;;5023344;28;20589;-68
2023/07/14 08:19:07;;;;;;;4.80;3.17;;;19.90;1.00;;;;;;5035675;28;20394;-67
2023/07/14 08:21:36;;;;;;;4.20;2.63;;;19.90;1.00;;;;;;5035592;28;20406;-77
2023/07/14 08:24:02;;;;;;;3.47;2.63;;;20.00;99.90;;;;;;5036200;28;20249;-71
2023/07/14 08:26:28;;;;;;;10.97;6.53;;;20.10;99.90;;;;;;5037127;28;20491;-73
2023/07/14 08:28:53;;;;;;;3.83;3.50;;;20.20;99.90;;;;;;5036022;28;20666;-77
2023/07/14 08:31:19;;;;;;;4.90;3.70;;;20.20;99.90;;;;;;5033401;28;20207;-67
2023/07/14 08:33:45;;;;;;;5.10;2.93;;;20.20;99.90;;;;;;5036203;28;20168;-75
2023/07/14 08:36:12;;;;;;;7.00;3.03;;;20.30;99.90;;;;;;5030700;28;20655;-73
2023/07/14 08:38:40;;;;;;;3.10;2.90;;;20.50;99.90;;;;;;5016484;28;20510;-75
2023/07/14 08:41:35;;;;;;;4.00;3.70;;;20.70;99.90;;;;;;5016601;28;20745;-68
2023/07/14 08:44:26;;;;;;;6.50;3.27;;;20.80;99.90;;;;;;5016142;28;20427;-71
2023/07/14 08:47:19;;;;;;;9.53;3.13;;;21.00;99.90;;;;;;5020794;28;20452;-71
2023/07/14 08:49:57;;;;;;;5.83;2.70;;;21.10;99.90;;;;;;5034935;28;20461;-71
2023/07/14 08:52:33;;;;;;;4.10;3.00;;;21.20;99.90;;;;;;5035006;28;20402;-71
2023/07/14 08:55:15;;;;;;;3.63;2.40;;;21.10;99.90;;;;;;5035118;28;20418;-76
2023/07/14 08:58:01;;;;;;;4.53;3.20;;;21.10;99.90;;;;;;5027740;28;20439;-73
2023/07/14 09:00:38;;;;;;;4.50;2.73;;;21.20;99.90;;;;;;5015942;28;20938;-68
2023/07/14 09:03:16;;;;;;;5.87;3.20;;;21.30;99.90;;;;;;5032880;28;20444;-67
2023/07/14 09:05:51;;;;;;;6.50;2.77;;;21.50;99.90;;;;;;5034379;28;20425;-68
2023/07/14 09:08:17;;;;;;;2.77;2.07;;;21.70;99.90;;;;;;5034260;28;20445;-70
2023/07/14 09:11:02;;;;;;;5.17;2.90;;;21.70;99.90;;;;;;5035078;28;20510;-70
2023/07/14 09:13:46;;;;;;;3.60;2.90;;;21.70;99.90;;;;;;5031899;28;20172;-68
2023/07/14 09:16:15;;;;;;;3.13;2.83;;;21.70;99.90;;;;;;5018068;28;20474;-73
2023/07/14 09:19:06;;;;;;;6.93;3.00;;;21.70;99.90;;;;;;5015594;28;20411;-72
2023/07/14 09:21:39;;;;;;;4.77;2.53;;;21.80;99.90;;;;;;5030482;28;20426;-67
2023/07/14 09:24:11;;;;;;;5.30;3.00;;;21.80;99.90;;;;;;5032895;28;20791;-68
2023/07/14 09:26:48;;;;;;;4.80;3.30;;;21.80;99.90;;;;;;5034399;28;20948;-76
2023/07/14 09:29:32;;;;;;;3.37;2.70;;;21.90;99.90;;;;;;5029586;28;20434;-76
2023/07/14 09:32:06;;;;;;;3.87;2.53;;;21.90;99.90;;;;;;5034030;28;20438;-67
2023/07/14 09:34:56;;;;;;;3.80;2.90;;;21.90;99.90;;;;;;5033587;28;20778;-73
2023/07/14 09:37:33;;;;;;;7.93;3.27;;;21.90;99.90;;;;;;5033825;28;20438;-68
2023/07/14 09:40:17;;;;;;;3.50;3.20;;;22.00;99.90;;;;;;5035006;28;20442;-70
2023/07/14 09:42:52;;;;;;;3.43;3.00;;;22.00;99.90;;;;;;5032727;28;20422;-73
2023/07/14 09:45:22;;;;;;;4.53;3.03;;;21.90;99.90;;;;;;5022961;28;20437;-75
2023/07/14 09:47:56;;;;;;;3.40;3.03;;;21.70;99.90;;;;;;5025057;28;20462;-76
2023/07/14 09:50:24;;;;;;;5.20;2.70;;;21.70;99.90;;;;;;5015376;28;20455;-76
2023/07/14 09:52:56;;;;;;;4.10;2.90;;;22.20;99.90;;;;;;5015832;28;20434;-67
2023/07/14 09:55:23;;;;;;;5.07;2.53;;;22.70;99.90;;;;;;5022174;28;20410;-70
2023/07/14 09:57:56;;;;;;;5.60;3.07;;;22.90;99.90;;;;;;5033503;28;20843;-72
2023/07/14 10:00:24;;;;;;;3.23;2.40;;;22.80;99.90;;;;;;5033044;28;20426;-77
2023/07/14 10:03:01;;;;;;;3.27;2.57;;;22.70;99.90;;;;;;5034398;28;20434;-70
2023/07/14 10:05:54;;;;;;;7.33;2.73;;;22.80;99.90;;;;;;5033886;28;20414;-72
2023/07/14 10:08:28;;;;;;;3.77;2.53;;;23.30;99.90;;;;;;5034709;28;20472;-70
2023/07/14 10:10:56;;;;;;;2.90;2.13;;;23.40;99.90;;;;;;5033510;28;20454;-78
2023/07/14 10:13:28;;;;;;;2.40;2.20;;;23.40;99.90;;;;;;5034347;28;20418;-78
2023/07/14 10:16:15;;;;;;;3.37;3.00;;;23.20;99.90;;;;;;5019962;28;20473;-70
2023/07/14 10:19:05;;;;;;;4.40;2.70;;;22.70;99.90;;;;;;5012723;28;20811;-70
2023/07/14 10:21:34;;;;;;;4.13;3.10;;;22.30;99.90;;;;;;5027612;28;20432;-74
2023/07/14 10:24:02;;;;;;;6.80;3.30;;;22.10;99.90;;;;;;5034334;28;20403;-79
2023/07/14 10:26:33;;;;;;;9.27;3.63;;;22.10;99.90;;;;;;5033076;28;20489;-70
2023/07/14 10:29:00;;;;;;;3.50;3.17;;;22.20;99.90;;;;;;5017573;28;20423;-73
2023/07/14 10:31:33;;;;;;;4.40;3.90;;;22.50;99.90;;;;;;5030468;28;20496;-70
2023/07/14 10:34:14;;;;;;;4.17;3.07;;;22.70;99.90;;;;;;5032634;28;20437;-70
2023/07/14 10:36:41;;;;;;;6.03;3.03;;;22.70;99.90;;;;;;5013609;28;20426;-77
2023/07/14 10:39:35;;;;;;;6.00;3.90;;;22.60;99.90;;;;;;5013833;28;20430;-78
2023/07/14 10:42:03;;;;;;;4.93;3.90;;;22.40;99.90;;;;;;5017057;28;20794;-70
2023/07/14 10:44:38;;;;;;;4.53;3.37;;;22.30;99.90;;;;;;5021766;28;20437;-77
2023/07/14 10:47:43;;;;;;;4.07;3.87;;;22.20;99.90;;;;;;5033346;28;20418;-77
2023/07/14 10:50:32;;;;;;;4.23;3.77;;;22.30;99.90;;;;;;5034049;28;20815;-79
2023/07/14 10:53:13;;;;;;;4.20;3.80;;;22.40;99.90;;;;;;5033984;28;20434;-77
2023/07/14 10:55:42;;;;;;;5.17;3.37;;;23.20;99.90;;;;;;5027861;28;20438;-70
2023/07/14 10:58:28;;;;;;;4.87;3.83;;;24.00;99.90;;;;;;5025821;28;20956;-77
2023/07/14 11:01:00;;;;;;;3.83;3.40;;;24.80;99.90;;;;;;5025957;28;20436;-78
2023/07/14 11:03:40;;;;;;;5.87;3.43;;;25.40;99.90;;;;;;5033644;28;20412;-70
2023/07/14 11:06:22;;;;;;;4.50;4.10;;;26.00;99.90;;;;;;5033202;28;20921;-78
2023/07/14 11:08:53;;;;;;;3.63;3.10;;;26.40;99.90;;;;;;5033039;28;20422;-73
2023/07/14 11:11:40;;;;;;;4.83;3.77;;;26.00;99.90;;;;;;5032532;28;20454;-74
2023/07/14 11:14:25;;;;;;;3.93;3.53;;;25.90;99.90;;;;;;5013403;28;20403;-69
2023/07/14 11:17:08;;;;;;;4.07;3.77;;;25.50;99.90;;;;;;5015715;28;20450;-76
2023/07/14 11:19:59;;;;;;;3.87;3.40;;;25.40;99.90;;;;;;5013662;28;20418;-70
2023/07/14 11:22:34;;;;;;;3.33;3.07;;;25.80;99.90;;;;;;5017087;28;20417;-79
2023/07/14 11:25:35;;;;;;;4.33;3.33;;;25.50;99.90;;;;;;5027956;28;20453;-72
2023/07/14 11:28:24;;;;;;;4.70;3.43;;;25.10;99.90;;;;;;5013609;28;20438;-75
2023/07/14 11:30:55;;;;;;;4.27;3.80;;;25.40;99.90;;;;;;5014629;28;21195;-70
2023/07/14 11:33:42;;;;;;;8.70;4.00;;;25.40;99.90;;;;;;5022299;28;20394;-70
2023/07/14 11:36:42;;;;;;;5.40;3.83;;;25.00;99.90;;;;;;5031952;28;20394;-71
2023/07/14 11:39:27;;;;;;;5.17;4.13;;;24.50;99.90;;;;;;5002269;28;20415;-72
2023/07/14 11:41:53;;;;;;;4.00;3.70;;;24.20;99.90;;;;;;5030990;28;20426;-70
2023/07/14 11:44:21;;;;;;;5.33;4.77;;;23.90;99.90;;;;;;5034929;28;20794;-70
2023/07/14 11:46:49;;;;;;;4.17;3.90;;;23.60;99.90;;;;;;5035586;28;20199;-76
2023/07/14 11:49:33;;;;;;;4.13;3.73;;;23.50;99.90;;;;;;5036567;28;20488;-70
2023/07/14 11:52:11;;;;;;;4.50;3.23;;;23.70;99.90;;;;;;5025781;28;20423;-76
2023/07/14 11:54:55;;;;;;;4.87;2.40;;;24.90;99.90;;;;;;5020013;28;20421;-72
2023/07/14 11:57:21;;;;;;;6.90;4.60;;;25.20;99.90;;;;;;5028255;28;20461;-70
2023/07/14 12:00:03;;;;;;;4.67;3.50;;;26.00;99.90;;;;;;5036357;28;20484;-71
2023/07/14 12:02:42;;;;;;;4.50;2.60;;;27.10;99.90;;;;;;5037119;28;20406;-79
2023/07/14 12:05:14;;;;;;;2.83;2.47;;;28.20;99.90;;;;;;5034433;28;20421;-71
2023/07/14 12:08:01;;;;;;;3.50;2.33;;;28.80;99.90;;;;;;5035457;28;20807;-70
2023/07/14 12:10:39;;;;;;;4.67;3.07;;;29.10;99.90;;;;;;5037002;28;20452;-77
2023/07/14 12:13:18;;;;;;;2.63;2.43;;;29.10;99.90;;;;;;5034855;28;20523;-77
2023/07/14 12:15:54;;;;;;;3.20;2.83;;;28.70;99.90;;;;;;5015845;28;20403;-78
2023/07/14 12:18:31;;;;;;;5.83;2.40;;;28.30;99.90;;;;;;5016907;28;20749;-77
2023/07/14 12:21:15;;;;;;;3.90;2.23;;;28.40;99.90;;;;;;5035348;28;20918;-78
2023/07/14 12:24:01;;;;;;;3.10;2.50;;;28.90;99.90;;;;;;5034656;28;20426;-78
2023/07/14 12:26:34;;;;;;;3.73;2.20;;;29.40;99.90;;;;;;5033925;28;20453;-69
2023/07/14 12:29:12;;;;;;;8.03;2.50;;;29.30;99.90;;;;;;5035427;28;20866;-69
2023/07/14 12:31:39;;;;;;;2.50;1.80;;;28.50;99.90;;;;;;5036159;28;20450;-73
2023/07/14 12:34:05;;;;;;;2.10;1.90;;;27.80;99.90;;;;;;5028983;28;20419;-79
2023/07/14 12:36:31;;;;;;;4.33;2.60;;;27.40;99.90;;;;;;5015733;28;20496;-74
2023/07/14 12:38:58;;;;;;;5.13;2.50;;;27.90;99.90;;;;;;5016355;28;20841;-70
2023/07/14 12:41:28;;;;;;;4.70;2.70;;;28.10;99.90;;;;;;5034627;28;20191;-70
2023/07/14 12:43:59;;;;;;;3.07;2.37;;;28.10;99.90;;;;;;5034510;28;20446;-75
2023/07/14 12:46:36;;;;;;;2.87;2.60;;;27.50;99.90;;;;;;5035145;28;20770;-79
2023/07/14 12:49:09;;;;;;;2.40;2.20;;;26.60;99.90;;;;;;5030343;28;20444;-74
2023/07/14 12:51:36;;;;;;;2.73;2.50;;;26.00;99.90;;;;;;5035726;28;20458;-72
2023/07/14 12:54:13;;;;;;;3.80;2.43;;;25.50;99.90;;;;;;5035217;28;20870;-72
2023/07/14 12:56:39;;;;;;;2.43;2.23;;;25.30;99.90;;;;;;5034366;28;20517;-70
2023/07/14 12:59:12;;;;;;;3.20;2.60;;;25.10;99.90;;;;;;5033709;28;20560;-70
2023/07/14 13:01:42;;;;;;;3.07;2.50;;;25.00;99.90;;;;;;5034235;28;20184;-71
2023/07/14 13:04:11;;;;;;;4.10;2.83;;;24.70;99.90;;;;;;5029811;28;20461;-74
2023/07/14 13:06:37;;;;;;;3.87;2.83;;;24.60;99.90;;;;;;5015501;28;20935;-69